createdAt,value
2022-10-09T00:00:30.239Z,6.20
2022-10-09T00:02:57.765Z,3.77
2022-10-09T00:05:26.962Z,4.07
2022-10-09T00:07:55.810Z,4.53
2022-10-09T00:10:23.346Z,5.30
2022-10-09T00:12:51.477Z,4.50
2022-10-09T00:15:19.326Z,5.67
2022-10-09T00:17:46.733Z,3.67
2022-10-09T00:20:14.264Z,4.80
2022-10-09T00:22:43.430Z,7.73
2022-10-09T00:25:12.222Z,4.43
2022-10-09T00:27:39.663Z,5.57
2022-10-09T00:30:07.798Z,2.93
2022-10-09T00:32:35.213Z,3.97
2022-10-09T00:35:02.651Z,5.53
2022-10-09T00:37:30.105Z,4.03
2022-10-09T00:39:57.526Z,5.57
2022-10-09T00:42:26.937Z,6.23
2022-10-09T00:44:57.646Z,5.70
2022-10-09T00:47:27.327Z,4.90
2022-10-09T00:49:56.973Z,3.90
2022-10-09T00:52:25.661Z,5.23
2022-10-09T00:54:53.547Z,5.50
2022-10-09T00:57:21.358Z,2.57
2022-10-09T00:59:50.160Z,1.87
2022-10-09T01:02:17.854Z,1.90
2022-10-09T01:04:45.301Z,4.17
2022-10-09T01:07:17.742Z,6.80
2022-10-09T01:09:50.267Z,1.67
2022-10-09T01:12:21.463Z,3.70
2022-10-09T01:14:57.838Z,3.33
2022-10-09T01:17:29.148Z,3.90
2022-10-09T01:20:02.125Z,2.90
2022-10-09T01:22:36.031Z,3.57
2022-10-09T01:25:06.335Z,6.27
2022-10-09T01:27:36.193Z,2.50
2022-10-09T01:30:05.831Z,5.20
2022-10-09T01:32:34.594Z,2.13
2022-10-09T01:35:02.646Z,1.97
2022-10-09T01:37:31.302Z,3.03
2022-10-09T01:39:59.194Z,4.67
2022-10-09T01:42:28.367Z,1.77
2022-10-09T01:44:57.176Z,3.20
2022-10-09T01:47:24.796Z,2.03
2022-10-09T01:49:55.083Z,2.67
2022-10-09T01:52:26.799Z,1.97
2022-10-09T01:55:03.337Z,3.07
2022-10-09T01:57:34.680Z,2.67
2022-10-09T02:00:04.462Z,2.87
2022-10-09T02:02:39.985Z,3.23
2022-10-09T02:05:08.917Z,8.73
2022-10-09T02:07:36.798Z,4.27
2022-10-09T02:10:06.249Z,4.17
2022-10-09T02:12:37.993Z,4.27
2022-10-09T02:15:07.489Z,2.07
2022-10-09T02:17:37.982Z,4.70
2022-10-09T02:20:09.277Z,3.83
2022-10-09T02:22:37.001Z,3.30
2022-10-09T02:25:05.872Z,2.93
2022-10-09T02:27:33.751Z,2.60
2022-10-09T02:30:01.897Z,3.70
2022-10-09T02:32:30.737Z,2.50
2022-10-09T02:34:58.183Z,4.13
2022-10-09T02:37:25.607Z,3.80
2022-10-09T02:39:53.735Z,3.93
2022-10-09T02:42:22.072Z,2.83
2022-10-09T02:44:49.645Z,3.63
2022-10-09T02:47:17.079Z,2.73
2022-10-09T02:49:45.906Z,2.90
2022-10-09T02:52:13.313Z,2.73
2022-10-09T02:54:42.004Z,6.07
2022-10-09T02:57:09.457Z,3.37
2022-10-09T02:59:36.894Z,3.33
2022-10-09T03:02:04.424Z,5.90
2022-10-09T03:04:31.976Z,4.50
2022-10-09T03:07:00.882Z,6.60
2022-10-09T03:09:32.860Z,4.97
2022-10-09T03:12:01.195Z,4.87
2022-10-09T03:14:28.664Z,5.93
2022-10-09T03:16:56.133Z,7.23
2022-10-09T03:19:23.571Z,2.97
2022-10-09T03:21:50.995Z,2.87
2022-10-09T03:24:19.776Z,5.20
2022-10-09T03:26:47.231Z,8.10
2022-10-09T03:29:14.678Z,4.77
2022-10-09T03:31:57.674Z,4.97
2022-10-09T03:34:25.171Z,6.77
2022-10-09T03:36:52.603Z,6.23
2022-10-09T03:39:21.393Z,6.20
2022-10-09T03:41:48.831Z,4.60
2022-10-09T03:44:16.437Z,3.93
2022-10-09T03:46:43.988Z,4.40
2022-10-09T03:49:11.466Z,5.03
2022-10-09T03:51:38.971Z,4.93
2022-10-09T03:54:06.792Z,3.97
2022-10-09T03:56:35.726Z,6.17
2022-10-09T03:59:05.495Z,8.33
2022-10-09T04:01:32.921Z,5.87
2022-10-09T04:04:00.355Z,4.90
2022-10-09T04:06:27.880Z,4.30
2022-10-09T04:08:56.681Z,4.77
2022-10-09T04:11:24.147Z,6.07
2022-10-09T04:13:52.913Z,4.70
2022-10-09T04:16:20.411Z,8.27
2022-10-09T04:18:47.985Z,4.20
2022-10-09T04:21:15.617Z,5.13
2022-10-09T04:23:43.051Z,7.10
2022-10-09T04:26:11.645Z,3.90
2022-10-09T04:28:39.358Z,5.13
2022-10-09T04:31:08.355Z,4.73
2022-10-09T04:33:35.871Z,3.93
2022-10-09T04:36:03.317Z,3.97
2022-10-09T04:38:31.980Z,4.77
2022-10-09T04:41:00.137Z,4.43
2022-10-09T04:43:27.762Z,7.40
2022-10-09T04:45:55.251Z,6.73
2022-10-09T04:48:24.180Z,5.63
2022-10-09T04:50:51.698Z,4.70
2022-10-09T04:53:19.129Z,8.87
2022-10-09T04:55:46.783Z,4.60
2022-10-09T04:58:14.717Z,11.90
2022-10-09T05:00:42.664Z,4.37
2022-10-09T05:03:10.333Z,4.43
2022-10-09T05:05:39.089Z,9.63
2022-10-09T05:08:06.605Z,6.90
2022-10-09T05:10:34.222Z,5.83
2022-10-09T05:13:02.162Z,3.90
2022-10-09T05:15:29.949Z,6.67
2022-10-09T05:17:57.513Z,5.23
2022-10-09T05:20:24.981Z,5.70
2022-10-09T05:22:53.758Z,6.50
2022-10-09T05:25:21.202Z,4.07
2022-10-09T05:27:48.996Z,5.53
2022-10-09T05:30:16.561Z,5.37
2022-10-09T05:32:44.029Z,7.97
2022-10-09T05:35:11.451Z,5.57
2022-10-09T05:37:38.919Z,6.87
2022-10-09T05:40:08.777Z,3.43
2022-10-09T05:42:36.223Z,6.57
2022-10-09T05:45:03.738Z,3.80
2022-10-09T05:47:31.407Z,6.57
2022-10-09T05:49:58.890Z,4.83
2022-10-09T05:52:26.381Z,4.40
2022-10-09T05:54:53.817Z,2.97
2022-10-09T05:57:22.806Z,5.33
2022-10-09T05:59:50.225Z,4.90
2022-10-09T06:02:17.731Z,6.00
2022-10-09T06:04:45.241Z,6.63
2022-10-09T06:07:12.678Z,11.87
2022-10-09T06:09:40.122Z,5.07
2022-10-09T06:12:07.647Z,4.63
2022-10-09T06:14:36.424Z,7.77
2022-10-09T06:17:04.016Z,7.33
2022-10-09T06:19:31.564Z,7.57
2022-10-09T06:21:58.978Z,5.70
2022-10-09T06:24:29.020Z,4.83
2022-10-09T06:26:57.227Z,4.43
2022-10-09T06:29:24.702Z,5.30
2022-10-09T06:31:53.535Z,5.60
2022-10-09T06:34:21.386Z,5.93
2022-10-09T06:36:49.041Z,4.40
2022-10-09T06:39:16.998Z,3.93
2022-10-09T06:41:44.768Z,6.17
2022-10-09T06:44:24.918Z,4.10
2022-10-09T06:46:53.763Z,5.20
2022-10-09T06:49:21.391Z,7.53
2022-10-09T06:51:48.831Z,5.83
2022-10-09T06:54:17.295Z,4.27
2022-10-09T06:56:44.847Z,4.73
2022-10-09T06:59:12.629Z,4.37
2022-10-09T07:01:40.354Z,9.17
2022-10-09T07:04:12.336Z,6.73
2022-10-09T07:06:41.859Z,6.07
2022-10-09T07:09:11.108Z,7.20
2022-10-09T07:11:40.107Z,4.30
2022-10-09T07:14:08.625Z,15.43
2022-10-09T07:16:36.917Z,9.60
2022-10-09T07:19:07.425Z,6.57
2022-10-09T07:21:36.678Z,6.90
2022-10-09T07:24:05.038Z,15.67
2022-10-09T07:26:34.165Z,32.20
2022-10-09T07:29:02.302Z,32.10
2022-10-09T07:31:29.838Z,38.30
2022-10-09T07:33:57.493Z,16.63
2022-10-09T07:36:25.279Z,17.90
2022-10-09T07:38:54.791Z,17.83
2022-10-09T07:41:23.305Z,15.67
2022-10-09T07:43:50.799Z,11.13
2022-10-09T07:46:19.759Z,9.13
2022-10-09T07:48:47.724Z,7.87
2022-10-09T07:51:17.101Z,5.73
2022-10-09T07:53:44.919Z,10.60
2022-10-09T07:56:16.317Z,7.67
2022-10-09T07:58:44.297Z,4.83
2022-10-09T08:01:15.008Z,4.70
2022-10-09T08:03:45.096Z,5.07
2022-10-09T08:06:12.640Z,8.27
2022-10-09T08:08:40.094Z,7.33
2022-10-09T08:11:11.286Z,3.60
2022-10-09T08:13:40.889Z,5.77
2022-10-09T08:16:08.637Z,4.53
2022-10-09T08:18:36.604Z,4.97
2022-10-09T08:21:05.523Z,6.07
2022-10-09T08:23:33.572Z,4.17
2022-10-09T08:26:01.029Z,2.40
2022-10-09T08:28:28.745Z,3.80
2022-10-09T08:30:57.758Z,2.67
2022-10-09T08:33:25.998Z,9.30
2022-10-09T08:35:54.358Z,3.60
2022-10-09T08:38:45.426Z,5.07
2022-10-09T08:41:10.239Z,5.30
2022-10-09T08:43:39.973Z,6.93
2022-10-09T08:46:15.323Z,5.07
2022-10-09T08:48:46.874Z,5.27
2022-10-09T08:51:16.443Z,8.53
2022-10-09T08:53:45.634Z,2.53
2022-10-09T08:56:15.043Z,7.40
2022-10-09T08:58:43.728Z,4.07
2022-10-09T09:01:16.605Z,5.50
2022-10-09T09:03:51.867Z,6.50
2022-10-09T09:06:23.154Z,4.53
2022-10-09T09:08:54.399Z,8.83
2022-10-09T09:11:25.436Z,6.33
2022-10-09T09:13:57.404Z,8.40
2022-10-09T09:16:29.939Z,2.03
2022-10-09T09:19:05.125Z,2.43
2022-10-09T09:21:36.142Z,5.17
2022-10-09T09:24:06.398Z,5.23
2022-10-09T09:26:33.902Z,6.10
2022-10-09T09:29:03.416Z,4.57
2022-10-09T09:31:36.589Z,6.30
2022-10-09T09:34:06.560Z,2.43
2022-10-09T09:36:36.414Z,7.63
2022-10-09T09:41:51.460Z,3.93
2022-10-09T09:44:19.871Z,5.97
2022-10-09T09:46:50.150Z,8.53
2022-10-09T09:49:18.840Z,2.87
2022-10-09T09:51:47.120Z,2.10
2022-10-09T09:54:17.402Z,2.90
2022-10-09T09:57:11.039Z,6.03
2022-10-09T09:59:34.396Z,3.00
2022-10-09T10:02:12.653Z,2.43
2022-10-09T10:04:49.206Z,2.10
2022-10-09T10:07:27.617Z,4.90
2022-10-09T10:10:02.151Z,8.27
2022-10-09T10:12:30.770Z,5.50
2022-10-09T10:14:58.201Z,5.23
2022-10-09T10:17:30.013Z,7.00
2022-10-09T10:19:57.571Z,2.53
2022-10-09T10:22:25.909Z,7.77
2022-10-09T10:24:55.725Z,8.97
2022-10-09T10:27:25.953Z,2.30
2022-10-09T10:29:56.379Z,5.17
2022-10-09T10:32:26.647Z,7.03
2022-10-09T10:34:59.370Z,1.97
2022-10-09T10:37:30.282Z,2.67
2022-10-09T10:40:00.252Z,5.23
2022-10-09T10:42:34.560Z,4.20
2022-10-09T10:45:05.147Z,1.93
2022-10-09T10:47:35.459Z,4.73
2022-10-09T10:50:04.607Z,3.30
2022-10-09T10:52:39.231Z,6.30
2022-10-09T10:55:15.379Z,2.50
2022-10-09T10:57:48.175Z,5.00
2022-10-09T11:00:17.244Z,6.17
2022-10-09T11:02:54.176Z,4.27
2022-10-09T11:05:37.975Z,2.90
2022-10-09T11:08:18.471Z,3.63
2022-10-09T11:10:51.343Z,2.20
2022-10-09T11:13:20.961Z,2.67
2022-10-09T11:15:54.810Z,2.37
2022-10-09T11:18:30.102Z,2.97
2022-10-09T11:21:05.440Z,2.63
2022-10-09T11:23:44.209Z,2.40
2022-10-09T11:26:18.054Z,5.70
2022-10-09T11:28:49.520Z,7.40
2022-10-09T11:31:19.697Z,4.77
2022-10-09T11:33:49.849Z,4.20
2022-10-09T11:36:22.592Z,3.47
2022-10-09T11:38:51.569Z,4.20
2022-10-09T11:41:19.526Z,2.40
2022-10-09T11:43:53.336Z,4.77
2022-10-09T11:46:25.851Z,2.20
2022-10-09T11:48:55.622Z,5.53
2022-10-09T11:51:30.164Z,3.20
2022-10-09T11:53:58.269Z,4.13
2022-10-09T11:56:26.705Z,3.27
2022-10-09T11:58:58.369Z,4.70
2022-10-09T12:01:27.000Z,6.07
2022-10-09T12:04:03.085Z,2.97
2022-10-09T12:06:32.784Z,2.07
2022-10-09T12:09:01.917Z,2.50
2022-10-09T12:11:30.035Z,6.50
2022-10-09T12:13:58.402Z,5.80
2022-10-09T12:16:38.533Z,5.43
2022-10-09T12:19:12.434Z,2.97
2022-10-09T12:21:45.863Z,4.17
2022-10-09T12:24:16.344Z,4.27
2022-10-09T12:26:44.739Z,5.23
2022-10-09T12:29:17.381Z,2.63
2022-10-09T12:31:45.229Z,3.63
2022-10-09T12:34:19.810Z,4.00
2022-10-09T12:36:55.086Z,7.87
2022-10-09T12:39:27.346Z,4.90
2022-10-09T12:41:58.357Z,2.20
2022-10-09T12:44:29.915Z,10.70
2022-10-09T12:47:00.758Z,2.53
2022-10-09T12:49:28.235Z,4.03
2022-10-09T12:51:58.953Z,2.97
2022-10-09T12:54:27.040Z,4.00
2022-10-09T12:56:55.761Z,4.17
2022-10-09T12:59:23.965Z,4.27
2022-10-09T13:01:53.747Z,2.53
2022-10-09T13:04:29.220Z,4.67
2022-10-09T13:06:58.530Z,2.37
2022-10-09T13:09:27.725Z,2.97
2022-10-09T13:11:57.347Z,4.67
2022-10-09T13:14:26.079Z,5.73
2022-10-09T13:16:53.874Z,5.87
2022-10-09T13:19:23.274Z,20.23
2022-10-09T13:22:02.419Z,4.53
2022-10-09T13:24:30.431Z,3.37
2022-10-09T13:26:57.904Z,3.40
2022-10-09T13:29:25.514Z,3.03
2022-10-09T13:31:53.025Z,4.60
2022-10-09T13:34:23.637Z,2.13
2022-10-09T13:36:51.421Z,1.73
2022-10-09T13:39:20.194Z,1.40
2022-10-09T13:41:49.699Z,2.30
2022-10-09T13:44:17.687Z,2.93
2022-10-09T13:46:45.135Z,1.80
2022-10-09T13:49:12.601Z,2.67
2022-10-09T13:51:40.105Z,5.23
2022-10-09T13:54:07.917Z,2.50
2022-10-09T13:56:36.974Z,4.20
2022-10-09T13:59:04.519Z,2.60
2022-10-09T14:01:32.060Z,3.90
2022-10-09T14:03:59.543Z,1.90
2022-10-09T14:06:27.411Z,4.23
2022-10-09T14:08:55.278Z,1.97
2022-10-09T14:11:22.852Z,3.20
2022-10-09T14:13:51.632Z,4.17
2022-10-09T14:16:19.134Z,3.37
2022-10-09T14:18:46.673Z,12.53
2022-10-09T14:21:15.805Z,6.27
2022-10-09T14:23:43.717Z,4.30
2022-10-09T14:26:11.505Z,3.37
2022-10-09T14:28:39.080Z,2.73
2022-10-09T14:31:08.561Z,2.57
2022-10-09T14:33:36.149Z,3.00
2022-10-09T14:36:07.807Z,3.87
2022-10-09T14:38:37.150Z,2.10
2022-10-09T14:41:04.767Z,8.13
2022-10-09T14:43:32.377Z,5.73
2022-10-09T14:46:04.314Z,4.67
2022-10-09T14:48:33.103Z,4.33
2022-10-09T14:51:04.050Z,4.90
2022-10-09T14:53:31.577Z,10.10
2022-10-09T14:56:00.610Z,8.77
2022-10-09T14:58:29.209Z,3.93
2022-10-09T15:00:57.285Z,5.70
2022-10-09T15:03:24.866Z,6.43
2022-10-09T15:05:57.304Z,9.30
2022-10-09T15:08:24.838Z,10.80
2022-10-09T15:10:52.731Z,11.40
2022-10-09T15:13:20.222Z,12.70
2022-10-09T15:15:47.732Z,7.33
2022-10-09T15:18:15.822Z,12.67
2022-10-09T15:20:44.712Z,6.93
2022-10-09T15:23:13.779Z,3.63
2022-10-09T15:25:48.166Z,7.80
2022-10-09T15:28:16.595Z,7.97
2022-10-09T15:30:47.337Z,4.47
2022-10-09T15:33:14.953Z,8.57
2022-10-09T15:35:42.457Z,6.43
2022-10-09T15:38:13.268Z,3.00
2022-10-09T15:40:44.906Z,4.80
2022-10-09T15:43:12.635Z,2.83
2022-10-09T15:45:40.756Z,6.00
2022-10-09T15:48:08.739Z,3.00
2022-10-09T15:50:36.474Z,2.47
2022-10-09T15:53:10.334Z,4.57
2022-10-09T15:55:38.305Z,3.40
2022-10-09T15:58:07.194Z,3.53
2022-10-09T16:00:35.822Z,4.80
2022-10-09T16:03:03.324Z,3.30
2022-10-09T16:05:31.007Z,3.43
2022-10-09T16:07:58.457Z,3.00
2022-10-09T16:10:25.887Z,3.93
2022-10-09T16:12:53.636Z,7.73
2022-10-09T16:15:22.532Z,5.20
2022-10-09T16:17:51.249Z,3.30
2022-10-09T16:20:18.864Z,4.30
2022-10-09T16:22:46.450Z,4.97
2022-10-09T16:25:14.055Z,3.97
2022-10-09T16:27:41.563Z,11.57
2022-10-09T16:30:11.991Z,10.60
2022-10-09T16:32:40.882Z,7.53
2022-10-09T16:35:08.883Z,5.90
2022-10-09T16:37:36.908Z,7.50
2022-10-09T16:40:05.161Z,5.47
2022-10-09T16:42:33.538Z,7.20
2022-10-09T16:45:01.927Z,5.17
2022-10-09T16:47:29.815Z,6.10
2022-10-09T16:49:58.967Z,5.97
2022-10-09T16:52:26.553Z,4.13
2022-10-09T16:54:57.047Z,9.00
2022-10-09T16:57:27.017Z,38.57
2022-10-09T16:59:54.430Z,35.90
2022-10-09T17:02:22.050Z,36.03
2022-10-09T17:04:49.575Z,34.33
2022-10-09T17:07:20.171Z,38.77
2022-10-09T17:09:47.614Z,30.70
2022-10-09T17:12:15.538Z,29.30
2022-10-09T17:14:42.994Z,41.47
2022-10-09T17:17:12.041Z,32.33
2022-10-09T17:19:39.859Z,46.37
2022-10-09T17:22:07.660Z,34.00
2022-10-09T17:24:36.779Z,19.70
2022-10-09T17:27:04.873Z,14.30
2022-10-09T17:29:32.390Z,9.70
2022-10-09T17:31:59.847Z,8.77
2022-10-09T17:34:27.316Z,14.13
2022-10-09T17:36:54.821Z,8.17
2022-10-09T17:39:22.245Z,8.40
2022-10-09T17:41:51.066Z,6.57
2022-10-09T17:44:19.710Z,8.10
2022-10-09T17:46:47.210Z,8.10
2022-10-09T17:49:14.849Z,7.17
2022-10-09T17:51:42.477Z,7.07
2022-10-09T17:54:12.249Z,5.70
2022-10-09T17:56:40.238Z,7.90
2022-10-09T17:59:09.562Z,6.27
2022-10-09T18:01:37.567Z,5.93
2022-10-09T18:04:05.115Z,4.80
2022-10-09T18:06:33.963Z,4.17
2022-10-09T18:09:01.546Z,5.20
2022-10-09T18:11:30.006Z,12.57
2022-10-09T18:13:57.641Z,11.83
2022-10-09T18:16:35.255Z,12.57
2022-10-09T18:19:04.131Z,7.37
2022-10-09T18:21:31.605Z,6.33
2022-10-09T18:23:59.132Z,8.83
2022-10-09T18:26:26.741Z,17.00
2022-10-09T18:28:54.198Z,14.47
2022-10-09T18:31:23.521Z,10.37
2022-10-09T18:33:53.010Z,11.77
2022-10-09T18:36:22.558Z,19.37
2022-10-09T18:38:50.786Z,13.67
2022-10-09T18:41:19.129Z,12.13
2022-10-09T18:43:47.100Z,15.47
2022-10-09T18:46:15.326Z,8.97
2022-10-09T18:48:42.801Z,17.70
2022-10-09T18:51:14.021Z,10.73
2022-10-09T18:53:43.295Z,13.80
2022-10-09T18:56:11.793Z,7.87
2022-10-09T18:58:40.390Z,7.97
2022-10-09T19:01:08.156Z,9.50
2022-10-09T19:03:36.530Z,6.60
2022-10-09T19:06:04.173Z,8.67
2022-10-09T19:08:33.219Z,11.03
2022-10-09T19:11:00.778Z,10.83
2022-10-09T19:13:28.502Z,14.97
2022-10-09T19:15:58.262Z,20.87
2022-10-09T19:18:26.122Z,23.00
2022-10-09T19:20:54.258Z,34.87
2022-10-09T19:23:22.006Z,68.70
2022-10-09T19:25:51.899Z,89.43
2022-10-09T19:28:19.738Z,98.67
2022-10-09T19:30:47.689Z,116.63
2022-10-09T19:33:15.644Z,92.37
2022-10-09T19:35:47.150Z,66.97
2022-10-09T19:38:15.168Z,52.13
2022-10-09T19:40:42.895Z,36.73
2022-10-09T19:43:11.926Z,31.43
2022-10-09T19:45:40.014Z,21.47
2022-10-09T19:48:07.943Z,23.67
2022-10-09T19:50:35.875Z,16.77
2022-10-09T19:53:05.138Z,17.13
2022-10-09T19:55:33.307Z,26.80
2022-10-09T19:58:00.960Z,22.23
2022-10-09T20:00:30.935Z,21.30
2022-10-09T20:02:58.377Z,18.70
2022-10-09T20:05:26.146Z,11.40
2022-10-09T20:07:53.658Z,11.90
2022-10-09T20:10:21.164Z,16.10
2022-10-09T20:12:49.008Z,10.63
2022-10-09T20:15:16.775Z,13.77
2022-10-09T20:17:45.580Z,22.50
2022-10-09T20:20:13.103Z,20.53
2022-10-09T20:22:40.510Z,23.53
2022-10-09T20:25:08.818Z,19.27
2022-10-09T20:27:36.260Z,16.17
2022-10-09T20:30:03.855Z,11.50
2022-10-09T20:32:33.550Z,7.40
2022-10-09T20:35:02.574Z,10.53
2022-10-09T20:37:30.024Z,7.43
2022-10-09T20:39:57.475Z,8.07
2022-10-09T20:42:25.180Z,6.33
2022-10-09T20:44:52.837Z,7.53
2022-10-09T20:47:20.342Z,5.37
2022-10-09T20:49:48.905Z,5.17
2022-10-09T20:52:19.148Z,4.37
2022-10-09T20:54:46.594Z,5.00
2022-10-09T20:57:14.029Z,4.30
2022-10-09T20:59:41.534Z,6.77
2022-10-09T21:02:09.137Z,6.00
2022-10-09T21:04:36.589Z,5.53
2022-10-09T21:07:04.084Z,5.47
2022-10-09T21:09:33.566Z,6.07
2022-10-09T21:12:02.295Z,7.53
2022-10-09T21:14:29.740Z,4.13
2022-10-09T21:16:57.188Z,6.10
2022-10-09T21:19:24.755Z,4.53
2022-10-09T21:21:52.387Z,3.63
2022-10-09T21:24:20.190Z,5.13
2022-10-09T21:26:49.069Z,5.73
2022-10-09T21:29:16.531Z,4.97
2022-10-09T21:31:44.130Z,7.50
2022-10-09T21:34:12.061Z,8.43
2022-10-09T21:37:01.814Z,7.50
2022-10-09T21:39:29.205Z,6.60
2022-10-09T21:41:58.023Z,5.70
2022-10-09T21:44:25.779Z,6.13
2022-10-09T21:46:53.207Z,3.70
2022-10-09T21:49:21.891Z,3.47
2022-10-09T21:51:49.470Z,3.60
2022-10-09T21:54:16.930Z,3.20
2022-10-09T21:56:44.442Z,4.70
2022-10-09T21:59:13.595Z,5.43
2022-10-09T22:01:41.060Z,4.23
2022-10-09T22:04:08.572Z,3.40
2022-10-09T22:06:36.036Z,5.67
2022-10-09T22:09:03.512Z,5.83
2022-10-09T22:11:30.959Z,2.77
2022-10-09T22:13:58.706Z,3.83
2022-10-09T22:16:27.530Z,3.20
2022-10-09T22:18:54.962Z,4.70
2022-10-09T22:21:22.837Z,7.63
2022-10-09T22:23:50.321Z,6.53
2022-10-09T22:26:19.837Z,5.40
2022-10-09T22:28:47.924Z,5.13
2022-10-09T22:31:16.419Z,3.70
2022-10-09T22:33:45.662Z,6.50
2022-10-09T22:36:14.157Z,4.00
2022-10-09T22:38:42.374Z,4.77
2022-10-09T22:41:11.058Z,4.87
2022-10-09T22:43:38.948Z,4.13
2022-10-09T22:46:07.459Z,2.93
2022-10-09T22:48:35.187Z,5.43
2022-10-09T22:51:04.973Z,5.50
2022-10-09T22:53:32.683Z,4.97
2022-10-09T22:56:00.131Z,5.30
2022-10-09T22:58:27.630Z,6.80
2022-10-09T23:00:55.234Z,8.60
2022-10-09T23:03:22.704Z,3.43
2022-10-09T23:05:50.137Z,4.30
2022-10-09T23:08:19.214Z,3.70
2022-10-09T23:10:46.664Z,4.10
2022-10-09T23:13:14.103Z,3.87
2022-10-09T23:15:41.787Z,2.37
2022-10-09T23:18:09.496Z,3.83
2022-10-09T23:20:37.429Z,5.83
2022-10-09T23:23:04.927Z,2.87
2022-10-09T23:25:33.699Z,2.57
2022-10-09T23:28:01.159Z,3.63
2022-10-09T23:30:28.599Z,3.53
2022-10-09T23:32:56.094Z,4.90
2022-10-09T23:35:23.529Z,3.47
2022-10-09T23:37:53.024Z,4.07
2022-10-09T23:40:20.487Z,4.67
2022-10-09T23:42:49.557Z,2.43
2022-10-09T23:45:18.012Z,3.93
2022-10-09T23:47:45.426Z,4.13
2022-10-09T23:50:12.904Z,10.77
2022-10-09T23:52:40.336Z,2.77
2022-10-09T23:55:08.188Z,2.73
2022-10-09T23:57:36.969Z,4.43
